Time;durP1;ratioP1;P1;durP2;ratioP2;P2;SDS_P1;SDS_P2;PMS_P1;PMS_P2;Temp;Humidity;BMP_temperature;BMP_pressure;BME280_temperature;BME280_humidity;BME280_pressure;Samples;Min_cycle;Max_cycle;Signal;HPM_P1;HPM_P2
2024/02/04 00:02:16;;;;;;;5.90;2.50;;;;;;;9.09;61.94;99214.48;104502;1258;59744;-60
2024/02/04 00:04:43;;;;;;;4.10;1.80;;;;;;;9.07;61.77;99216.06;104224;1256;63003;-61
2024/02/04 00:07:11;;;;;;;3.40;1.10;;;;;;;9.02;61.61;99218.59;108232;1258;62487;-56
2024/02/04 00:09:39;;;;;;;5.20;2.40;;;;;;;8.97;61.71;99212.33;104191;1257;66229;-57
2024/02/04 00:12:07;;;;;;;4.10;0.70;;;;;;;8.93;61.85;99219.57;105470;1257;59727;-56
2024/02/04 00:14:35;;;;;;;4.80;2.20;;;;;;;8.96;61.72;99224.59;108576;1256;58130;-57
2024/02/04 00:17:02;;;;;;;5.70;1.90;;;;;;;9.01;61.64;99224.84;108610;1259;64144;-58
2024/02/04 00:19:30;;;;;;;5.10;1.90;;;;;;;9.07;61.60;99224.63;106614;1260;60096;-58
2024/02/04 00:21:57;;;;;;;4.40;1.20;;;;;;;9.10;61.54;99228.19;104222;1260;64874;-56
2024/02/04 00:24:25;;;;;;;5.40;2.30;;;;;;;9.06;61.56;99228.39;104146;1257;60325;-56
2024/02/04 00:26:53;;;;;;;5.00;2.10;;;;;;;9.01;61.67;99223.48;104239;1261;59721;-55
2024/02/04 00:29:20;;;;;;;3.60;1.00;;;;;;;8.96;61.69;99215.89;104195;1260;64224;-57
2024/02/04 00:31:48;;;;;;;5.90;2.70;;;;;;;8.91;61.63;99211.39;104213;1260;61570;-57
2024/02/04 00:34:16;;;;;;;3.00;0.80;;;;;;;8.90;61.57;99208.55;108581;1259;62546;-57
2024/02/04 00:36:44;;;;;;;6.20;2.20;;;;;;;8.95;61.49;99209.50;108589;1255;57818;-57
2024/02/04 00:39:11;;;;;;;6.10;2.50;;;;;;;9.00;61.43;99213.73;108543;1260;57666;-59
2024/02/04 00:41:39;;;;;;;7.80;2.90;;;;;;;9.05;61.35;99216.26;106280;1257;64186;-58
2024/02/04 00:44:06;;;;;;;6.50;2.60;;;;;;;9.09;61.36;99214.09;104142;1257;69057;-58
2024/02/04 00:46:34;;;;;;;4.00;1.80;;;;;;;9.09;61.33;99221.25;104131;1262;63768;-58
2024/02/04 00:49:01;;;;;;;5.50;2.30;;;;;;;9.10;61.30;99226.99;104045;1256;60291;-58
2024/02/04 00:51:29;;;;;;;4.30;1.70;;;;;;;9.11;61.27;99230.41;108530;1258;60119;-57
2024/02/04 00:53:57;;;;;;;3.20;1.20;;;;;;;9.23;61.24;99238.60;108426;1257;62809;-59
2024/02/04 00:56:24;;;;;;;5.80;2.40;;;;;;;9.34;60.90;99247.33;106968;1259;61429;-59
2024/02/04 00:58:52;;;;;;;5.70;2.60;;;;;;;9.35;60.87;99256.52;104065;1256;63765;-59
2024/02/04 01:01:19;;;;;;;5.40;2.10;;;;;;;9.26;60.95;99254.41;104454;1257;59631;-57
2024/02/04 01:03:47;;;;;;;3.20;0.60;;;;;;;9.14;60.89;99251.99;104170;1258;59599;-60
2024/02/04 01:06:15;;;;;;;5.20;1.90;;;;;;;9.03;61.03;99258.77;108557;1256;66291;-56
2024/02/04 01:08:42;;;;;;;5.50;1.70;;;;;;;8.94;60.51;99250.09;108590;1257;61326;-57
2024/02/04 01:11:10;;;;;;;4.30;1.30;;;;;;;8.88;60.37;99235.68;104492;1257;63782;-59
2024/02/04 01:13:39;;;;;;;2.90;1.00;;;;;;;8.77;60.35;99240.45;104168;1260;60377;-60
2024/02/04 01:16:06;;;;;;;3.50;1.20;;;;;;;8.65;60.21;99236.10;104049;1264;59574;-56
2024/02/04 01:18:34;;;;;;;1.10;0.30;;;;;;;8.55;60.03;99243.50;104123;1257;64161;-58
2024/02/04 01:21:02;;;;;;;3.40;1.10;;;;;;;8.47;60.12;99245.30;104192;1256;61536;-58
2024/02/04 01:23:29;;;;;;;1.40;0.30;;;;;;;8.42;60.08;99243.45;104210;1257;62453;-60
2024/02/04 01:25:57;;;;;;;3.80;1.10;;;;;;;8.45;60.13;99242.61;104069;1258;59701;-57
2024/02/04 01:28:24;;;;;;;0.90;0.20;;;;;;;8.53;59.99;99248.76;104123;1257;59602;-59
2024/02/04 01:30:52;;;;;;;4.70;1.10;;;;;;;8.56;59.99;99250.09;104172;1260;64056;-58
2024/02/04 01:33:19;;;;;;;1.30;0.40;;;;;;;8.53;60.13;99249.42;104172;1258;60469;-57
2024/02/04 01:35:47;;;;;;;3.90;1.60;;;;;;;8.52;60.33;99252.87;104128;1259;63766;-57
2024/02/04 01:38:15;;;;;;;2.70;0.40;;;;;;;8.50;60.34;99249.73;104156;1256;59786;-58
2024/02/04 01:40:42;;;;;;;4.60;1.30;;;;;;;8.47;60.49;99248.42;104135;1260;59669;-57
2024/02/04 01:43:10;;;;;;;2.00;0.50;;;;;;;8.43;60.82;99244.71;103988;1258;64100;-58
2024/02/04 01:45:38;;;;;;;5.30;1.60;;;;;;;8.47;60.87;99245.98;108510;1261;60167;-60
2024/02/04 01:48:06;;;;;;;4.00;1.40;;;;;;;8.55;60.75;99243.84;108593;1256;63773;-59
2024/02/04 01:50:34;;;;;;;5.00;1.50;;;;;;;8.63;60.79;99240.90;108433;1257;58973;-59
2024/02/04 01:53:01;;;;;;;4.60;1.70;;;;;;;8.67;60.86;99237.68;108528;1255;59429;-59
2024/02/04 01:55:28;;;;;;;2.40;0.60;;;;;;;8.69;60.92;99233.38;108544;1257;64604;-59
2024/02/04 01:57:56;;;;;;;5.80;1.90;;;;;;;8.67;61.00;99233.13;108438;1257;72548;-59
2024/02/04 02:00:24;;;;;;;4.20;1.50;;;;;;;8.66;60.84;99232.16;108469;1257;62511;-60
2024/02/04 02:02:51;;;;;;;2.50;1.00;;;;;;;8.66;60.81;99235.38;104298;1257;62176;-57
2024/02/04 02:05:19;;;;;;;5.10;1.50;;;;;;;8.69;60.45;99236.77;104390;1258;60536;-57
2024/02/04 02:07:51;;;;;;;5.00;1.70;;;;;;;8.71;60.13;99234.55;104153;1257;64942;-58
2024/02/04 02:10:19;;;;;;;5.50;1.90;;;;;;;8.70;59.66;99242.01;104119;1258;72754;-57
2024/02/04 02:12:55;;;;;;;4.00;1.60;;;;;;;8.66;59.10;99240.94;104190;1260;64791;-58
2024/02/04 02:15:25;;;;;;;2.00;0.50;;;;;;;8.65;58.92;99240.83;104140;1257;60730;-58
2024/02/04 02:18:00;;;;;;;4.10;1.40;;;;;;;8.61;58.85;99242.79;108416;1256;59146;-58
2024/02/04 02:20:46;;;;;;;5.20;1.70;;;;;;;8.58;58.74;99247.63;108471;1256;65669;-58
2024/02/04 02:23:15;;;;;;;2.40;0.40;;;;;;;8.56;58.85;99247.66;104118;1257;61080;-58
2024/02/04 02:25:43;;;;;;;4.90;1.60;;;;;;;8.60;58.99;99250.58;104081;1259;66248;-57
2024/02/04 02:28:11;;;;;;;2.00;0.60;;;;;;;8.66;58.99;99253.17;104083;1264;60550;-56
2024/02/04 02:30:39;;;;;;;7.10;1.90;;;;;;;8.68;58.84;99256.29;104186;1260;60422;-58
2024/02/04 02:33:07;;;;;;;5.60;1.70;;;;;;;8.66;58.93;99257.02;104059;1257;63912;-58
2024/02/04 02:35:35;;;;;;;2.60;0.80;;;;;;;8.64;58.88;99260.90;104146;1260;61929;-59
2024/02/04 02:38:15;;;;;;;7.00;1.90;;;;;;;8.61;58.96;99263.77;104190;1256;63602;-58
2024/02/04 02:40:51;;;;;;;6.30;2.00;;;;;;;8.57;58.94;99264.26;108512;1256;59071;-59
2024/02/04 02:43:19;;;;;;;3.30;0.70;;;;;;;8.58;59.06;99264.18;107801;1259;60179;-56
2024/02/04 02:45:46;;;;;;;5.10;1.80;;;;;;;8.63;58.86;99264.10;104127;1260;63633;-57
2024/02/04 02:48:14;;;;;;;2.60;0.80;;;;;;;8.70;58.55;99263.70;104006;1257;60329;-58
2024/02/04 02:50:42;;;;;;;4.70;1.70;;;;;;;8.76;58.42;99267.21;104197;1257;62440;-56
2024/02/04 02:53:09;;;;;;;2.00;0.80;;;;;;;8.78;57.91;99273.63;104060;1257;60430;-57
2024/02/04 02:55:37;;;;;;;5.00;1.80;;;;;;;8.81;57.36;99269.15;104180;1257;60539;-57
2024/02/04 02:58:05;;;;;;;6.40;1.80;;;;;;;8.85;57.12;99259.52;104203;1257;63638;-56
2024/02/04 03:00:33;;;;;;;2.50;1.10;;;;;;;8.86;56.84;99259.95;104232;1256;64164;-58
2024/02/04 03:03:00;;;;;;;5.70;1.70;;;;;;;8.82;56.32;99265.98;108477;1255;63702;-57
2024/02/04 03:05:28;;;;;;;2.80;0.80;;;;;;;8.76;56.26;99265.73;107858;1257;60539;-56
2024/02/04 03:07:56;;;;;;;5.40;1.70;;;;;;;8.72;56.52;99267.27;104116;1257;63408;-58
2024/02/04 03:10:23;;;;;;;1.60;0.60;;;;;;;8.69;56.54;99265.51;104220;1255;63673;-57
2024/02/04 03:12:51;;;;;;;6.40;1.80;;;;;;;8.70;56.21;99267.30;104265;1261;61393;-59
2024/02/04 03:15:18;;;;;;;2.10;0.50;;;;;;;8.75;56.01;99266.66;104191;1257;64777;-54
2024/02/04 03:17:46;;;;;;;4.50;1.10;;;;;;;8.78;55.88;99267.30;108462;1256;60897;-57
2024/02/04 03:20:14;;;;;;;1.90;0.40;;;;;;;8.74;55.85;99269.05;108693;1253;59925;-58
2024/02/04 03:22:44;;;;;;;5.50;1.50;;;;;;;8.70;56.04;99270.79;108690;1253;64955;-58
2024/02/04 03:25:12;;;;;;;4.80;1.10;;;;;;;8.66;55.95;99272.58;108576;1254;61132;-57
2024/02/04 03:27:40;;;;;;;5.20;1.60;;;;;;;8.62;56.00;99269.65;106467;1254;64187;-57
2024/02/04 03:30:08;;;;;;;2.50;0.40;;;;;;;8.56;55.93;99274.21;108704;1257;59180;-56
2024/02/04 03:32:35;;;;;;;6.10;1.70;;;;;;;8.51;55.91;99273.59;108724;1253;59834;-57
2024/02/04 03:35:03;;;;;;;1.90;0.40;;;;;;;8.47;56.01;99270.11;107680;1257;67335;-57
2024/02/04 03:37:32;;;;;;;7.80;1.20;;;;;;;8.49;55.95;99270.65;108689;1256;60087;-58
2024/02/04 03:39:59;;;;;;;4.50;1.30;;;;;;;8.54;55.83;99274.52;108686;1254;63682;-57
2024/02/04 03:42:27;;;;;;;5.50;1.60;;;;;;;8.57;55.88;99274.10;108613;1253;59942;-57
2024/02/04 03:44:55;;;;;;;2.70;0.60;;;;;;;8.58;55.89;99275.27;108609;1256;58859;-58
2024/02/04 03:47:23;;;;;;;7.40;2.20;;;;;;;8.56;55.79;99275.29;106118;1254;63675;-57
2024/02/04 03:49:51;;;;;;;11.50;3.20;;;;;;;8.53;55.89;99277.10;104305;1254;61438;-56
2024/02/04 03:52:19;;;;;;;7.30;1.40;;;;;;;8.50;55.87;99275.93;104231;1254;63712;-57
2024/02/04 03:54:46;;;;;;;6.10;2.60;;;;;;;8.45;55.94;99277.75;104298;1259;60435;-57
2024/02/04 03:57:14;;;;;;;3.30;0.80;;;;;;;8.41;56.02;99280.42;108555;1254;58784;-58
2024/02/04 03:59:45;;;;;;;4.70;1.10;;;;;;;8.37;56.00;99279.34;108686;1253;64931;-59
2024/02/04 04:02:13;;;;;;;8.30;4.40;;;;;;;8.33;56.09;99277.38;108718;1254;62296;-58
2024/02/04 04:04:47;;;;;;;5.60;2.10;;;;;;;8.33;55.88;99282.81;108717;1253;63722;-57
2024/02/04 04:07:16;;;;;;;8.00;3.20;;;;;;;8.36;55.65;99282.19;108740;1253;60951;-57
2024/02/04 04:09:44;;;;;;;5.50;1.00;;;;;;;8.43;55.45;99281.46;108842;1253;59796;-57
2024/02/04 04:12:11;;;;;;;7.30;1.90;;;;;;;8.48;55.34;99281.23;108861;1252;63719;-58
2024/02/04 04:14:39;;;;;;;6.60;2.20;;;;;;;8.49;55.07;99286.71;108789;1253;62190;-60
2024/02/04 04:17:06;;;;;;;2.60;0.70;;;;;;;8.48;54.86;99289.73;105919;1253;63782;-55
2024/02/04 04:19:35;;;;;;;6.50;1.90;;;;;;;8.46;54.73;99293.79;104359;1255;60470;-57
2024/02/04 04:22:03;;;;;;;3.30;0.90;;;;;;;8.44;54.53;99292.43;104452;1252;61043;-58
2024/02/04 04:24:31;;;;;;;6.20;1.90;;;;;;;8.41;54.59;99288.45;108691;1253;65006;-62
2024/02/04 04:26:59;;;;;;;5.80;1.90;;;;;;;8.36;54.53;99288.67;105093;1254;62691;-57
2024/02/04 04:29:26;;;;;;;2.00;0.60;;;;;;;8.32;54.41;99289.69;106789;1253;64782;-56
2024/02/04 04:31:54;;;;;;;2.10;0.60;;;;;;;8.30;54.44;99293.04;104341;1255;60445;-60
2024/02/04 04:34:21;;;;;;;8.30;2.20;;;;;;;8.27;54.48;99293.50;104331;1253;60537;-60
2024/02/04 04:36:49;;;;;;;2.70;0.60;;;;;;;8.24;54.46;99298.66;104393;1257;64949;-60
2024/02/04 04:39:17;;;;;;;6.80;1.80;;;;;;;8.27;54.40;99307.27;104375;1253;61287;-58
2024/02/04 04:41:45;;;;;;;2.30;0.50;;;;;;;8.32;54.40;99306.34;104399;1253;66271;-57
2024/02/04 04:44:12;;;;;;;6.30;1.40;;;;;;;8.33;54.51;99298.73;104367;1254;61660;-55
2024/02/04 04:46:40;;;;;;;6.50;2.20;;;;;;;8.32;54.63;99295.99;104316;1253;60572;-56
2024/02/04 04:49:07;;;;;;;3.40;1.10;;;;;;;8.30;54.75;99292.52;104304;1253;65443;-56
2024/02/04 04:51:35;;;;;;;5.70;1.80;;;;;;;8.26;55.11;99293.77;104296;1253;62451;-58
2024/02/04 04:54:03;;;;;;;4.40;0.80;;;;;;;8.20;55.38;99294.59;104429;1252;63359;-57
2024/02/04 04:56:30;;;;;;;5.60;1.80;;;;;;;8.13;55.77;99300.80;104355;1253;61203;-57
2024/02/04 04:58:58;;;;;;;2.40;0.50;;;;;;;8.09;56.12;99301.35;104290;1253;60458;-58
2024/02/04 05:01:27;;;;;;;4.30;0.80;;;;;;;8.12;56.15;99305.48;104396;1257;64245;-56
2024/02/04 05:03:54;;;;;;;7.30;1.80;;;;;;;8.16;56.36;99307.73;107281;1254;61886;-55
2024/02/04 05:06:22;;;;;;;5.20;0.60;;;;;;;8.18;56.48;99313.34;104239;1253;66142;-56
2024/02/04 05:08:50;;;;;;;6.50;1.70;;;;;;;8.18;56.71;99316.13;104300;1251;61625;-56
2024/02/04 05:11:17;;;;;;;3.40;0.70;;;;;;;8.16;56.78;99311.19;108758;1251;59934;-57
2024/02/04 05:13:45;;;;;;;2.50;0.60;;;;;;;8.14;56.76;99312.64;108763;1253;64898;-55
2024/02/04 05:16:12;;;;;;;6.20;1.80;;;;;;;8.12;56.83;99316.66;108453;1255;60279;-55
2024/02/04 05:18:40;;;;;;;4.00;1.20;;;;;;;8.10;56.89;99321.03;104300;1253;62469;-56
2024/02/04 05:21:09;;;;;;;6.90;1.90;;;;;;;8.06;57.00;99323.06;104540;1255;61551;-57
2024/02/04 05:23:37;;;;;;;2.90;1.00;;;;;;;8.05;57.06;99324.40;104494;1253;60436;-54
2024/02/04 05:26:05;;;;;;;2.70;0.40;;;;;;;8.08;56.91;99330.11;104217;1253;63722;-58
2024/02/04 05:28:33;;;;;;;7.40;1.50;;;;;;;8.13;56.79;99328.55;104243;1252;60634;-56
2024/02/04 05:31:03;;;;;;;1.80;0.40;;;;;;;8.17;56.76;99331.88;104292;1254;64289;-57
2024/02/04 05:33:31;;;;;;;7.40;1.80;;;;;;;8.16;56.53;99332.89;104422;1252;59279;-58
2024/02/04 05:35:59;;;;;;;6.50;2.00;;;;;;;8.12;56.48;99329.90;104428;1251;60429;-57
2024/02/04 05:38:26;;;;;;;3.20;0.80;;;;;;;8.10;56.58;99325.88;107845;1257;65459;-57
2024/02/04 05:40:54;;;;;;;3.70;1.10;;;;;;;8.08;56.58;99325.70;105137;1252;61275;-59
2024/02/04 05:43:22;;;;;;;3.70;0.70;;;;;;;8.06;56.56;99318.59;104311;1253;63946;-56
2024/02/04 05:45:49;;;;;;;6.20;2.10;;;;;;;8.03;56.50;99317.95;104194;1253;60537;-58
2024/02/04 05:48:17;;;;;;;3.70;1.10;;;;;;;8.01;56.42;99320.35;108728;1253;58391;-58
2024/02/04 05:50:44;;;;;;;1.90;0.70;;;;;;;8.06;56.17;99321.19;108702;1253;64927;-57
2024/02/04 05:53:12;;;;;;;4.90;1.70;;;;;;;8.15;55.91;99319.67;108734;1253;61584;-57
2024/02/04 05:55:39;;;;;;;1.40;0.30;;;;;;;8.24;55.63;99322.40;108760;1253;63781;-58
2024/02/04 05:58:07;;;;;;;5.40;1.70;;;;;;;8.31;55.42;99318.98;108814;1252;60879;-58
2024/02/04 06:00:35;;;;;;;6.50;1.70;;;;;;;8.32;55.13;99318.70;104779;1257;61046;-58
2024/02/04 06:03:03;;;;;;;3.90;0.50;;;;;;;8.32;54.98;99316.14;104521;1253;65010;-57
2024/02/04 06:05:30;;;;;;;7.40;1.90;;;;;;;8.32;54.83;99315.41;107997;1253;60222;-59
2024/02/04 06:07:58;;;;;;;5.30;0.70;;;;;;;8.32;54.56;99319.25;108893;1253;63749;-58
2024/02/04 06:10:25;;;;;;;6.80;2.00;;;;;;;8.33;54.43;99320.74;108825;1253;59864;-60
2024/02/04 06:12:53;;;;;;;2.90;0.70;;;;;;;8.33;54.44;99327.92;108786;1252;59981;-60
2024/02/04 06:15:21;;;;;;;5.80;1.80;;;;;;;8.32;54.38;99323.09;108712;1253;64904;-59
2024/02/04 06:17:48;;;;;;;1.80;0.70;;;;;;;8.32;54.38;99325.19;108200;1253;61941;-58
2024/02/04 06:20:16;;;;;;;6.60;1.70;;;;;;;8.38;54.28;99325.40;108744;1253;62444;-59
2024/02/04 06:22:44;;;;;;;2.30;0.60;;;;;;;8.45;54.05;99325.66;108940;1253;58650;-60
2024/02/04 06:25:12;;;;;;;11.60;2.20;;;;;;;8.47;53.83;99322.36;108706;1253;58923;-54
2024/02/04 06:27:40;;;;;;;6.40;1.70;;;;;;;8.48;53.71;99323.31;108776;1252;64619;-59
2024/02/04 06:30:08;;;;;;;2.80;0.80;;;;;;;8.47;53.66;99319.52;108818;1251;72610;-60
2024/02/04 06:32:37;;;;;;;6.40;2.00;;;;;;;8.47;53.75;99321.83;108702;1253;62514;-60
2024/02/04 06:35:06;;;;;;;7.70;1.80;;;;;;;8.46;53.70;99324.53;108766;1253;60149;-59
2024/02/04 06:37:33;;;;;;;6.80;2.00;;;;;;;8.45;53.77;99329.86;105718;1252;61383;-57
2024/02/04 06:40:02;;;;;;;1.80;0.40;;;;;;;8.44;53.65;99322.27;108800;1251;74534;-59
2024/02/04 06:42:29;;;;;;;8.90;2.10;;;;;;;8.42;53.76;99325.58;108855;1252;62395;-57
2024/02/04 06:44:57;;;;;;;4.00;0.50;;;;;;;8.38;53.71;99320.98;106860;1253;63779;-56
2024/02/04 06:47:24;;;;;;;6.90;1.70;;;;;;;8.43;53.67;99318.83;104391;1252;60430;-59
2024/02/04 06:49:52;;;;;;;3.20;0.60;;;;;;;8.53;53.55;99323.86;108738;1254;58984;-53
2024/02/04 06:52:20;;;;;;;5.50;1.70;;;;;;;8.58;53.60;99330.32;107063;1253;63722;-57
2024/02/04 06:54:47;;;;;;;8.60;1.70;;;;;;;8.60;53.61;99327.14;104872;1256;60450;-56
2024/02/04 06:57:15;;;;;;;4.50;0.60;;;;;;;8.60;53.57;99332.77;108583;1252;63746;-59
2024/02/04 06:59:43;;;;;;;6.30;1.50;;;;;;;8.59;53.62;99330.95;104235;1253;60440;-58
2024/02/04 07:02:10;;;;;;;1.50;0.60;;;;;;;8.57;53.71;99329.85;104312;1253;60058;-57
2024/02/04 07:04:38;;;;;;;9.00;1.90;;;;;;;8.55;53.89;99330.20;104559;1253;67432;-59
2024/02/04 07:07:06;;;;;;;6.40;1.50;;;;;;;8.52;53.95;99327.66;104369;1253;61489;-58
2024/02/04 07:09:33;;;;;;;1.80;0.50;;;;;;;8.52;54.05;99333.61;104197;1253;63779;-58
2024/02/04 07:12:01;;;;;;;4.50;0.60;;;;;;;8.56;53.92;99336.23;105175;1253;60781;-59
2024/02/04 07:14:29;;;;;;;4.90;1.70;;;;;;;8.63;53.80;99336.86;104266;1253;63070;-57
2024/02/04 07:16:56;;;;;;;6.50;1.40;;;;;;;8.68;53.82;99338.17;104297;1253;65126;-60
2024/02/04 07:19:24;;;;;;;6.70;1.90;;;;;;;8.70;53.84;99337.81;104375;1256;63709;-57
2024/02/04 07:21:51;;;;;;;1.40;0.30;;;;;;;8.69;53.87;99344.19;104425;1253;65171;-56
2024/02/04 07:24:21;;;;;;;6.20;1.80;;;;;;;8.64;53.75;99345.67;104284;1253;60476;-56
2024/02/04 07:26:48;;;;;;;6.10;1.90;;;;;;;8.62;53.74;99350.55;104328;1254;59414;-57
2024/02/04 07:29:16;;;;;;;3.50;1.30;;;;;;;8.61;53.88;99351.21;104191;1253;63613;-60
2024/02/04 07:31:44;;;;;;;5.40;1.40;;;;;;;8.60;53.89;99347.83;108735;1253;61325;-59
2024/02/04 07:34:11;;;;;;;5.00;0.70;;;;;;;8.58;53.99;99353.02;108739;1253;64824;-62
2024/02/04 07:36:43;;;;;;;8.90;1.70;;;;;;;8.59;53.86;99359.08;108788;1253;59183;-59
2024/02/04 07:39:11;;;;;;;10.30;1.50;;;;;;;8.61;54.05;99348.91;108763;1253;60606;-59
2024/02/04 07:41:38;;;;;;;6.10;2.10;;;;;;;8.71;53.72;99349.77;108756;1253;65020;-60
2024/02/04 07:44:06;;;;;;;4.60;1.50;;;;;;;8.81;53.09;99340.33;107648;1254;61588;-63
2024/02/04 07:46:33;;;;;;;5.10;1.60;;;;;;;8.88;52.73;99335.16;104330;1257;64710;-56
2024/02/04 07:49:01;;;;;;;5.80;2.20;;;;;;;8.91;52.82;99343.08;104782;1257;60367;-57
2024/02/04 07:51:29;;;;;;;6.40;1.70;;;;;;;8.97;52.79;99337.86;108654;1253;58972;-56
2024/02/04 07:53:57;;;;;;;3.10;0.60;;;;;;;9.04;52.70;99339.02;106388;1253;64868;-57
2024/02/04 07:56:25;;;;;;;6.10;1.90;;;;;;;9.08;52.55;99344.57;104704;1251;61410;-57
2024/02/04 07:58:52;;;;;;;5.30;1.00;;;;;;;9.06;52.16;99345.55;104894;1257;63956;-59
2024/02/04 08:01:20;;;;;;;8.90;2.10;;;;;;;9.06;52.16;99345.77;105626;1253;61394;-59
2024/02/04 08:03:47;;;;;;;7.70;1.80;;;;;;;9.08;52.21;99353.49;108878;1253;59957;-57
2024/02/04 08:06:15;;;;;;;4.10;1.20;;;;;;;9.10;52.36;99348.73;108924;1253;65467;-57
2024/02/04 08:08:44;;;;;;;7.50;2.20;;;;;;;9.11;52.12;99349.51;104898;1253;61475;-57
2024/02/04 08:11:18;;;;;;;3.90;0.90;;;;;;;9.11;51.85;99348.30;104620;1253;63787;-55
2024/02/04 08:13:45;;;;;;;7.40;2.20;;;;;;;9.09;51.76;99349.54;104426;1253;61289;-51
2024/02/04 08:16:13;;;;;;;2.50;0.60;;;;;;;9.07;52.02;99353.04;104387;1255;60677;-55
2024/02/04 08:18:41;;;;;;;5.00;1.60;;;;;;;9.11;51.69;99351.84;108585;1253;63642;-57
2024/02/04 08:21:09;;;;;;;7.30;2.10;;;;;;;9.18;51.70;99350.12;108763;1253;60096;-57
2024/02/04 08:23:36;;;;;;;3.40;0.50;;;;;;;9.22;51.74;99356.22;108720;1253;66036;-59
2024/02/04 08:26:04;;;;;;;6.60;2.20;;;;;;;9.25;51.73;99358.13;106638;1253;60644;-58
2024/02/04 08:28:32;;;;;;;7.30;2.60;;;;;;;9.24;51.85;99353.29;108715;1253;60980;-57
2024/02/04 08:30:59;;;;;;;3.80;1.40;;;;;;;9.25;52.14;99350.19;108697;1253;63639;-56
2024/02/04 08:33:27;;;;;;;7.10;2.30;;;;;;;9.23;52.20;99346.86;106106;1253;60175;-58
2024/02/04 08:35:55;;;;;;;7.30;2.10;;;;;;;9.19;52.18;99344.96;104255;1253;63663;-60
2024/02/04 08:38:22;;;;;;;2.70;0.80;;;;;;;9.19;52.25;99345.01;104313;1253;60694;-56
2024/02/04 08:40:50;;;;;;;8.70;1.90;;;;;;;9.19;52.48;99342.02;108735;1253;58362;-58
2024/02/04 08:43:17;;;;;;;6.00;1.80;;;;;;;9.18;52.47;99351.33;108812;1252;63714;-56
2024/02/04 08:45:45;;;;;;;6.60;2.40;;;;;;;9.18;52.49;99345.09;108722;1253;61372;-58
2024/02/04 08:48:12;;;;;;;3.50;0.70;;;;;;;9.19;52.50;99343.54;108835;1253;65917;-60
2024/02/04 08:50:40;;;;;;;5.00;1.70;;;;;;;9.28;52.55;99340.89;108778;1253;59583;-59
2024/02/04 08:53:08;;;;;;;6.90;1.90;;;;;;;9.38;52.18;99339.54;108559;1253;60000;-56
2024/02/04 08:55:35;;;;;;;5.70;2.40;;;;;;;9.48;52.16;99340.60;104312;1256;76348;-58
2024/02/04 08:58:03;;;;;;;5.30;1.80;;;;;;;9.51;52.05;99334.31;104428;1253;61393;-56
2024/02/04 09:00:31;;;;;;;5.60;1.90;;;;;;;9.57;51.93;99342.77;105194;1253;62452;-57
2024/02/04 09:02:58;;;;;;;7.30;2.60;;;;;;;9.59;51.76;99344.63;104234;1258;60438;-56
2024/02/04 09:05:26;;;;;;;7.30;2.40;;;;;;;9.62;51.94;99343.33;104356;1252;60581;-57
2024/02/04 09:07:55;;;;;;;4.20;0.80;;;;;;;9.57;51.53;99348.34;104346;1253;65206;-57
2024/02/04 09:10:23;;;;;;;7.40;2.30;;;;;;;9.50;51.55;99344.27;108726;1253;62467;-56
2024/02/04 09:12:50;;;;;;;8.60;2.70;;;;;;;9.42;51.72;99333.92;106485;1253;63774;-56
2024/02/04 09:15:18;;;;;;;5.60;2.00;;;;;;;9.37;51.87;99327.91;104235;1253;61642;-57
2024/02/04 09:17:45;;;;;;;4.10;1.10;;;;;;;9.33;51.80;99324.76;104350;1253;60442;-58
2024/02/04 09:20:15;;;;;;;5.50;2.30;;;;;;;9.32;52.09;99323.11;104268;1253;64321;-58
2024/02/04 09:22:43;;;;;;;7.80;2.40;;;;;;;9.32;52.13;99330.48;108789;1253;60366;-59
2024/02/04 09:25:10;;;;;;;3.70;1.30;;;;;;;9.35;51.83;99337.41;108746;1253;63983;-58
2024/02/04 09:27:38;;;;;;;8.20;2.20;;;;;;;9.46;51.54;99330.96;108775;1253;58887;-56
2024/02/04 09:30:06;;;;;;;9.40;2.60;;;;;;;9.63;51.17;99325.75;108745;1253;60119;-58
2024/02/04 09:32:34;;;;;;;8.30;2.80;;;;;;;9.78;50.81;99318.73;108756;1253;63737;-57
2024/02/04 09:35:02;;;;;;;7.10;2.20;;;;;;;9.88;50.68;99323.56;108718;1253;61308;-60
2024/02/04 09:37:30;;;;;;;7.90;2.30;;;;;;;9.88;50.21;99323.33;108676;1253;64268;-58
2024/02/04 09:39:58;;;;;;;9.30;2.20;;;;;;;9.90;50.04;99319.88;108771;1253;59945;-57
2024/02/04 09:42:27;;;;;;;6.50;2.00;;;;;;;9.82;49.54;99321.54;108768;1253;58878;-58
2024/02/04 09:44:55;;;;;;;6.30;2.10;;;;;;;9.78;49.68;99317.48;108750;1253;63709;-55
2024/02/04 09:47:23;;;;;;;7.30;2.10;;;;;;;9.75;49.75;99316.52;108732;1253;60778;-57
2024/02/04 09:49:55;;;;;;;8.10;2.10;;;;;;;9.74;49.61;99317.69;105230;1257;63748;-57
2024/02/04 09:52:31;;;;;;;8.30;2.40;;;;;;;9.71;49.64;99316.27;108742;1253;60099;-59
2024/02/04 09:55:03;;;;;;;4.70;0.70;;;;;;;9.68;49.72;99317.88;108671;1253;58382;-61
2024/02/04 09:57:31;;;;;;;6.90;2.30;;;;;;;9.59;49.58;99315.75;108738;1257;64897;-57
2024/02/04 09:59:59;;;;;;;6.40;1.90;;;;;;;9.56;49.76;99304.15;105394;1258;61393;-56
2024/02/04 10:02:26;;;;;;;9.00;2.20;;;;;;;9.50;49.85;99294.13;104381;1253;62454;-56
2024/02/04 10:04:54;;;;;;;7.10;1.80;;;;;;;9.49;50.09;99289.16;108759;1258;58959;-59
2024/02/04 10:07:22;;;;;;;9.30;2.20;;;;;;;9.51;50.31;99288.55;108417;1253;492087;-57
2024/02/04 10:11:49;;;;;;;8.40;2.00;;;;;;;9.05;50.80;99286.05;101240;1291;601981;-59
2024/02/04 10:14:19;;;;;;;10.40;4.30;;;;;;;9.35;49.83;99291.86;107905;1265;58012;-61
2024/02/04 10:16:46;;;;;;;11.50;3.60;;;;;;;9.40;49.61;99292.96;107995;1266;57913;-57
2024/02/04 10:19:14;;;;;;;7.70;2.60;;;;;;;9.42;49.43;99289.67;104818;1265;62060;-56
2024/02/04 10:21:42;;;;;;;7.70;2.80;;;;;;;9.43;49.11;99285.39;107946;1266;61412;-52
2024/02/04 10:24:09;;;;;;;4.40;1.10;;;;;;;9.45;49.15;99279.75;104788;1266;292080;-58
2024/02/04 10:26:40;;;;;;;6.40;1.80;;;;;;;9.47;49.17;99273.21;103757;1265;62025;-58
2024/02/04 10:29:08;;;;;;;5.20;2.00;;;;;;;9.51;49.07;99265.61;103964;1256;59250;-58
2024/02/04 10:31:35;;;;;;;7.50;1.10;;;;;;;9.54;48.85;99268.99;107455;1259;63275;-57
2024/02/04 10:34:03;;;;;;;5.60;2.00;;;;;;;9.54;48.98;99250.05;104004;1257;61723;-57
2024/02/04 10:36:32;;;;;;;9.50;2.70;;;;;;;9.56;49.04;99249.85;103619;1256;62896;-60
2024/02/04 10:39:00;;;;;;;2.70;0.90;;;;;;;9.57;49.11;99243.65;103943;1257;61326;-57
2024/02/04 10:41:27;;;;;;;8.20;2.50;;;;;;;9.58;49.08;99247.05;103968;1256;60124;-58
2024/02/04 10:43:55;;;;;;;5.60;1.80;;;;;;;9.59;49.13;99250.14;103744;1256;64229;-63
2024/02/04 10:46:23;;;;;;;6.00;2.20;;;;;;;9.60;49.18;99244.95;103784;1259;60352;-60
2024/02/04 10:48:56;;;;;;;4.70;1.00;;;;;;;9.62;49.24;99244.41;103933;1258;64143;-57
2024/02/04 10:51:27;;;;;;;8.00;2.40;;;;;;;9.60;49.22;99244.41;104143;1256;59746;-57
2024/02/04 10:53:58;;;;;;;6.70;1.90;;;;;;;9.58;49.25;99239.33;104837;1255;59744;-57
2024/02/04 10:56:26;;;;;;;3.40;0.60;;;;;;;9.59;49.25;99232.04;104200;1260;65116;-59
2024/02/04 10:58:55;;;;;;;7.60;2.00;;;;;;;9.61;48.97;99235.17;103996;1256;61717;-58
2024/02/04 11:01:23;;;;;;;9.80;2.50;;;;;;;9.62;48.95;99237.26;104032;1256;63773;-55
2024/02/04 11:03:51;;;;;;;5.20;0.60;;;;;;;9.61;48.72;99242.92;108455;1256;60161;-57
2024/02/04 11:06:20;;;;;;;6.00;1.90;;;;;;;9.60;48.63;99235.95;108030;1258;60690;-57
2024/02/04 11:08:48;;;;;;;4.80;1.70;;;;;;;9.60;47.93;99241.58;104237;1256;62958;-58
2024/02/04 11:11:16;;;;;;;6.40;1.60;;;;;;;9.61;48.13;99238.22;108317;1256;60625;-56
2024/02/04 11:13:44;;;;;;;7.20;3.10;;;;;;;9.63;48.34;99241.81;108500;1256;64891;-59
2024/02/04 11:16:34;;;;;;;2.10;0.60;;;;;;;9.68;48.22;99249.45;104507;1262;60235;-58
2024/02/04 11:19:20;;;;;;;6.90;1.90;;;;;;;9.70;47.56;99254.20;108070;1256;57594;-58
2024/02/04 11:22:00;;;;;;;6.40;1.90;;;;;;;9.70;47.27;99270.26;108473;1256;76057;-58
2024/02/04 11:24:47;;;;;;;2.90;1.00;;;;;;;9.67;47.12;99267.20;108492;1257;61497;-58
2024/02/04 11:27:15;;;;;;;;;;;;;;;9.64;47.06;99271.69;107929;1256;64288;-60
2024/02/04 11:29:43;;;;;;;5.00;1.10;;;;;;;9.67;46.89;99269.14;104195;1259;59207;-59
2024/02/04 11:32:12;;;;;;;7.60;2.20;;;;;;;9.71;46.61;99270.39;104187;1256;59714;-59
2024/02/04 11:34:40;;;;;;;5.30;1.70;;;;;;;9.77;46.16;99273.34;105329;1261;64120;-61
2024/02/04 11:37:19;;;;;;;5.30;1.70;;;;;;;9.80;45.69;99279.09;103909;1262;61476;-58
2024/02/04 11:39:55;;;;;;;5.20;1.70;;;;;;;9.84;45.83;99281.92;108389;1259;62452;-56
2024/02/04 11:42:23;;;;;;;8.40;2.70;;;;;;;9.83;45.40;99267.57;105827;1256;59665;-59